sensor_id;sensor_type;location;lat;lon;timestamp;pressure;altitude;pressure_sealevel;temperature;humidity
24788;BME280;12883;52.662;5.196;2023-07-08T00:00:44;101901.06;;;20.33;100.00
24788;BME280;12883;52.662;5.196;2023-07-08T00:03:14;101907.63;;;20.26;100.00
24788;BME280;12883;52.662;5.196;2023-07-08T00:05:40;101887.22;;;20.18;100.00
24788;BME280;12883;52.662;5.196;2023-07-08T00:08:11;101898.97;;;20.24;100.00
24788;BME280;12883;52.662;5.196;2023-07-08T00:10:37;101898.84;;;20.19;100.00
24788;BME280;12883;52.662;5.196;2023-07-08T00:13:03;101887.22;;;20.18;100.00
24788;BME280;12883;52.662;5.196;2023-07-08T00:15:30;101886.88;;;20.15;100.00
24788;BME280;12883;52.662;5.196;2023-07-08T00:17:58;101875.28;;;20.14;100.00
24788;BME280;12883;52.662;5.196;2023-07-08T00:22:55;101866.34;;;20.02;100.00
24788;BME280;12883;52.662;5.196;2023-07-08T00:25:22;101865.22;;;19.98;100.00
24788;BME280;12883;52.662;5.196;2023-07-08T00:27:48;101880.41;;;20.04;100.00
24788;BME280;12883;52.662;5.196;2023-07-08T00:32:48;101869.63;;;20.04;100.00
24788;BME280;12883;52.662;5.196;2023-07-08T00:35:22;101870.59;;;19.98;100.00
24788;BME280;12883;52.662;5.196;2023-07-08T00:37:50;101868.94;;;19.97;100.00
24788;BME280;12883;52.662;5.196;2023-07-08T00:40:19;101860.97;;;19.79;100.00
24788;BME280;12883;52.662;5.196;2023-07-08T00:42:45;101862.25;;;19.77;100.00
24788;BME280;12883;52.662;5.196;2023-07-08T00:45:46;101882.31;;;19.92;100.00
24788;BME280;12883;52.662;5.196;2023-07-08T00:48:19;101873.63;;;19.90;100.00
24788;BME280;12883;52.662;5.196;2023-07-08T00:50:47;101870.00;;;19.85;100.00
24788;BME280;12883;52.662;5.196;2023-07-08T00:53:23;101865.44;;;19.85;100.00
24788;BME280;12883;52.662;5.196;2023-07-08T00:55:51;101848.56;;;19.78;100.00
24788;BME280;12883;52.662;5.196;2023-07-08T00:58:18;101860.97;;;19.79;100.00
24788;BME280;12883;52.662;5.196;2023-07-08T01:00:45;101868.00;;;19.80;100.00
24788;BME280;12883;52.662;5.196;2023-07-08T01:03:10;101863.09;;;19.77;100.00
24788;BME280;12883;52.662;5.196;2023-07-08T01:05:36;101850.22;;;19.68;100.00
24788;BME280;12883;52.662;5.196;2023-07-08T01:08:05;101855.69;;;19.73;100.00
24788;BME280;12883;52.662;5.196;2023-07-08T01:10:39;101834.13;;;19.50;100.00
24788;BME280;12883;52.662;5.196;2023-07-08T01:13:09;101849.94;;;19.69;100.00
24788;BME280;12883;52.662;5.196;2023-07-08T01:15:46;101837.31;;;19.70;100.00
24788;BME280;12883;52.662;5.196;2023-07-08T01:18:14;101837.91;;;19.60;100.00
24788;BME280;12883;52.662;5.196;2023-07-08T01:20:42;101838.94;;;19.59;100.00
24788;BME280;12883;52.662;5.196;2023-07-08T01:23:07;101835.69;;;19.57;100.00
24788;BME280;12883;52.662;5.196;2023-07-08T01:25:34;101844.34;;;19.59;100.00
24788;BME280;12883;52.662;5.196;2023-07-08T01:28:01;101855.09;;;19.59;100.00
24788;BME280;12883;52.662;5.196;2023-07-08T01:30:29;101827.47;;;19.52;100.00
24788;BME280;12883;52.662;5.196;2023-07-08T01:32:58;101843.75;;;19.57;100.00
24788;BME280;12883;52.662;5.196;2023-07-08T01:35:25;101846.19;;;19.59;100.00
24788;BME280;12883;52.662;5.196;2023-07-08T01:37:56;101826.06;;;19.50;100.00
24788;BME280;12883;52.662;5.196;2023-07-08T01:40:29;101833.31;;;19.49;100.00
24788;BME280;12883;52.662;5.196;2023-07-08T01:42:56;101831.31;;;19.45;100.00
24788;BME280;12883;52.662;5.196;2023-07-08T01:45:23;101799.13;;;19.27;100.00
24788;BME280;12883;52.662;5.196;2023-07-08T01:48:19;101823.22;;;19.45;100.00
24788;BME280;12883;52.662;5.196;2023-07-08T01:53:20;101824.28;;;19.44;100.00
24788;BME280;12883;52.662;5.196;2023-07-08T01:55:46;101798.06;;;19.28;100.00
24788;BME280;12883;52.662;5.196;2023-07-08T01:58:12;101821.94;;;19.36;100.00
24788;BME280;12883;52.662;5.196;2023-07-08T02:00:37;101814.56;;;19.31;100.00
24788;BME280;12883;52.662;5.196;2023-07-08T02:03:02;101809.53;;;19.35;100.00
24788;BME280;12883;52.662;5.196;2023-07-08T02:05:28;101812.47;;;19.33;100.00
24788;BME280;12883;52.662;5.196;2023-07-08T02:07:53;101803.09;;;19.24;100.00
24788;BME280;12883;52.662;5.196;2023-07-08T02:10:18;101808.00;;;19.27;100.00
24788;BME280;12883;52.662;5.196;2023-07-08T02:12:44;101786.34;;;19.22;100.00
24788;BME280;12883;52.662;5.196;2023-07-08T02:15:10;101800.97;;;19.26;100.00
24788;BME280;12883;52.662;5.196;2023-07-08T02:17:35;101777.63;;;19.09;100.00
24788;BME280;12883;52.662;5.196;2023-07-08T02:20:00;101768.97;;;19.07;100.00
24788;BME280;12883;52.662;5.196;2023-07-08T02:22:26;101794.44;;;19.22;100.00
24788;BME280;12883;52.662;5.196;2023-07-08T02:24:51;101788.22;;;19.22;100.00
24788;BME280;12883;52.662;5.196;2023-07-08T02:27:17;101786.78;;;19.19;100.00
24788;BME280;12883;52.662;5.196;2023-07-08T02:29:42;101758.44;;;19.05;100.00
24788;BME280;12883;52.662;5.196;2023-07-08T02:32:08;101788.56;;;19.25;100.00
24788;BME280;12883;52.662;5.196;2023-07-08T02:34:37;101787.38;;;19.21;100.00
24788;BME280;12883;52.662;5.196;2023-07-08T02:37:03;101771.22;;;19.21;100.00
24788;BME280;12883;52.662;5.196;2023-07-08T02:39:28;101767.94;;;19.19;100.00
24788;BME280;12883;52.662;5.196;2023-07-08T02:41:54;101764.22;;;19.20;100.00
24788;BME280;12883;52.662;5.196;2023-07-08T02:44:19;101770.03;;;19.17;100.00
24788;BME280;12883;52.662;5.196;2023-07-08T02:46:44;101759.06;;;19.19;100.00
24788;BME280;12883;52.662;5.196;2023-07-08T02:49:10;101760.09;;;19.18;100.00
24788;BME280;12883;52.662;5.196;2023-07-08T02:51:35;101765.47;;;19.18;100.00
24788;BME280;12883;52.662;5.196;2023-07-08T02:54:00;101752.25;;;19.16;100.00
24788;BME280;12883;52.662;5.196;2023-07-08T02:56:26;101759.16;;;19.12;100.00
24788;BME280;12883;52.662;5.196;2023-07-08T02:58:52;101750.72;;;19.09;100.00
24788;BME280;12883;52.662;5.196;2023-07-08T03:01:17;101740.63;;;18.93;100.00
24788;BME280;12883;52.662;5.196;2023-07-08T03:03:46;101753.75;;;19.12;100.00
24788;BME280;12883;52.662;5.196;2023-07-08T03:06:13;101756.09;;;19.09;100.00
24788;BME280;12883;52.662;5.196;2023-07-08T03:08:38;101760.19;;;19.11;100.00
24788;BME280;12883;52.662;5.196;2023-07-08T03:11:05;101764.66;;;19.06;100.00
24788;BME280;12883;52.662;5.196;2023-07-08T03:13:32;101763.38;;;19.08;100.00
24788;BME280;12883;52.662;5.196;2023-07-08T03:15:59;101676.97;;;18.64;100.00
24788;BME280;12883;52.662;5.196;2023-07-08T03:18:25;101762.75;;;19.06;100.00
24788;BME280;12883;52.662;5.196;2023-07-08T03:20:52;101746.38;;;18.96;100.00
24788;BME280;12883;52.662;5.196;2023-07-08T03:23:18;101762.75;;;19.06;100.00
24788;BME280;12883;52.662;5.196;2023-07-08T03:25:43;101750.94;;;19.07;100.00
24788;BME280;12883;52.662;5.196;2023-07-08T03:28:09;101753.28;;;19.04;100.00
24788;BME280;12883;52.662;5.196;2023-07-08T03:30:38;101716.97;;;18.72;100.00
24788;BME280;12883;52.662;5.196;2023-07-08T03:33:03;101755.50;;;18.95;100.00
24788;BME280;12883;52.662;5.196;2023-07-08T03:35:28;101762.97;;;18.93;100.00
24788;BME280;12883;52.662;5.196;2023-07-08T03:37:54;101765.06;;;18.91;100.00
24788;BME280;12883;52.662;5.196;2023-07-08T03:40:19;101756.88;;;18.86;100.00
24788;BME280;12883;52.662;5.196;2023-07-08T03:42:45;101767.25;;;18.83;100.00
24788;BME280;12883;52.662;5.196;2023-07-08T03:45:10;101770.22;;;18.81;100.00
24788;BME280;12883;52.662;5.196;2023-07-08T03:47:35;101762.94;;;18.82;100.00
24788;BME280;12883;52.662;5.196;2023-07-08T03:50:01;101761.16;;;18.76;100.00
24788;BME280;12883;52.662;5.196;2023-07-08T03:52:26;101760.72;;;18.79;100.00
24788;BME280;12883;52.662;5.196;2023-07-08T03:54:51;101753.94;;;18.76;100.00
24788;BME280;12883;52.662;5.196;2023-07-08T03:57:17;101717.50;;;18.51;100.00
24788;BME280;12883;52.662;5.196;2023-07-08T03:59:42;101758.00;;;18.67;100.00
24788;BME280;12883;52.662;5.196;2023-07-08T04:02:10;101762.44;;;18.73;100.00
24788;BME280;12883;52.662;5.196;2023-07-08T04:04:35;101754.00;;;18.70;100.00
24788;BME280;12883;52.662;5.196;2023-07-08T04:07:05;101756.69;;;18.70;100.00
24788;BME280;12883;52.662;5.196;2023-07-08T04:09:30;101762.91;;;18.70;100.00
24788;BME280;12883;52.662;5.196;2023-07-08T04:11:56;101767.81;;;18.73;100.00
24788;BME280;12883;52.662;5.196;2023-07-08T04:14:23;101749.94;;;18.67;100.00
24788;BME280;12883;52.662;5.196;2023-07-08T04:16:55;101774.84;;;18.74;100.00
24788;BME280;12883;52.662;5.196;2023-07-08T04:19:23;101753.19;;;18.69;100.00
24788;BME280;12883;52.662;5.196;2023-07-08T04:21:49;101747.28;;;18.49;100.00
24788;BME280;12883;52.662;5.196;2023-07-08T04:24:16;101701.00;;;18.29;100.00
24788;BME280;12883;52.662;5.196;2023-07-08T04:26:42;101758.75;;;18.56;100.00
24788;BME280;12883;52.662;5.196;2023-07-08T04:29:13;101772.16;;;18.74;100.00
24788;BME280;12883;52.662;5.196;2023-07-08T04:31:38;101762.06;;;18.70;100.00
24788;BME280;12883;52.662;5.196;2023-07-08T04:34:03;101760.06;;;18.65;100.00
24788;BME280;12883;52.662;5.196;2023-07-08T04:36:29;101763.50;;;18.72;100.00
24788;BME280;12883;52.662;5.196;2023-07-08T04:38:54;101769.91;;;18.71;100.00
24788;BME280;12883;52.662;5.196;2023-07-08T04:41:23;101775.28;;;18.71;100.00
24788;BME280;12883;52.662;5.196;2023-07-08T04:43:51;101757.38;;;18.65;100.00
24788;BME280;12883;52.662;5.196;2023-07-08T04:46:45;101762.00;;;18.76;100.00
24788;BME280;12883;52.662;5.196;2023-07-08T04:49:12;101736.66;;;18.54;100.00
24788;BME280;12883;52.662;5.196;2023-07-08T04:51:39;101764.00;;;18.81;100.00
24788;BME280;12883;52.662;5.196;2023-07-08T04:54:05;101765.53;;;18.88;100.00
24788;BME280;12883;52.662;5.196;2023-07-08T04:56:40;101762.25;;;18.86;100.00
24788;BME280;12883;52.662;5.196;2023-07-08T04:59:09;101773.47;;;18.83;100.00
24788;BME280;12883;52.662;5.196;2023-07-08T05:01:34;101745.13;;;18.69;100.00
24788;BME280;12883;52.662;5.196;2023-07-08T05:04:00;101707.09;;;18.54;100.00
24788;BME280;12883;52.662;5.196;2023-07-08T05:06:26;101764.56;;;18.83;100.00
24788;BME280;12883;52.662;5.196;2023-07-08T05:08:52;101769.66;;;18.91;100.00
24788;BME280;12883;52.662;5.196;2023-07-08T05:11:17;101770.31;;;18.86;100.00
24788;BME280;12883;52.662;5.196;2023-07-08T05:13:43;101771.72;;;18.89;100.00
24788;BME280;12883;52.662;5.196;2023-07-08T05:16:08;101733.00;;;18.78;100.00
24788;BME280;12883;52.662;5.196;2023-07-08T05:18:33;101762.97;;;18.93;100.00
24788;BME280;12883;52.662;5.196;2023-07-08T05:20:59;101760.41;;;18.98;100.00
24788;BME280;12883;52.662;5.196;2023-07-08T05:23:24;101752.47;;;19.03;100.00
24788;BME280;12883;52.662;5.196;2023-07-08T05:25:49;101746.97;;;18.98;100.00
24788;BME280;12883;52.662;5.196;2023-07-08T05:28:15;101747.09;;;19.03;100.00
24788;BME280;12883;52.662;5.196;2023-07-08T05:30:41;101751.44;;;19.16;100.00
24788;BME280;12883;52.662;5.196;2023-07-08T05:33:07;101752.66;;;19.20;100.00
24788;BME280;12883;52.662;5.196;2023-07-08T05:35:32;101752.44;;;19.33;100.00
24788;BME280;12883;52.662;5.196;2023-07-08T05:37:58;101743.38;;;19.27;100.00
24788;BME280;12883;52.662;5.196;2023-07-08T05:40:23;101700.16;;;19.11;100.00
24788;BME280;12883;52.662;5.196;2023-07-08T05:42:49;101759.22;;;19.58;100.00
24788;BME280;12883;52.662;5.196;2023-07-08T05:45:14;101764.94;;;19.73;100.00
24788;BME280;12883;52.662;5.196;2023-07-08T05:47:39;101750.75;;;19.78;100.00
24788;BME280;12883;52.662;5.196;2023-07-08T05:50:05;101753.91;;;19.86;100.00
24788;BME280;12883;52.662;5.196;2023-07-08T05:52:31;101746.28;;;19.83;100.00
24788;BME280;12883;52.662;5.196;2023-07-08T05:54:56;101761.13;;;19.97;100.00
24788;BME280;12883;52.662;5.196;2023-07-08T05:57:22;101768.91;;;20.05;100.00
24788;BME280;12883;52.662;5.196;2023-07-08T05:59:48;101746.72;;;20.15;100.00
24788;BME280;12883;52.662;5.196;2023-07-08T06:02:16;101749.88;;;20.23;100.00
24788;BME280;12883;52.662;5.196;2023-07-08T06:04:41;101755.47;;;20.33;100.00
24788;BME280;12883;52.662;5.196;2023-07-08T06:07:07;101756.94;;;20.41;100.00
24788;BME280;12883;52.662;5.196;2023-07-08T06:09:32;101756.16;;;20.40;100.00
24788;BME280;12883;52.662;5.196;2023-07-08T06:11:58;101747.16;;;20.51;100.00
24788;BME280;12883;52.662;5.196;2023-07-08T06:14:23;101755.59;;;20.54;100.00
24788;BME280;12883;52.662;5.196;2023-07-08T06:16:48;101763.06;;;20.64;100.00
24788;BME280;12883;52.662;5.196;2023-07-08T06:19:14;101678.63;;;20.19;100.00
24788;BME280;12883;52.662;5.196;2023-07-08T06:21:40;101750.00;;;20.72;100.00
24788;BME280;12883;52.662;5.196;2023-07-08T06:24:06;101754.44;;;20.78;100.00
24788;BME280;12883;52.662;5.196;2023-07-08T06:26:32;101753.72;;;20.83;100.00
24788;BME280;12883;52.662;5.196;2023-07-08T06:28:57;101751.00;;;20.83;100.00
24788;BME280;12883;52.662;5.196;2023-07-08T06:31:22;101756.13;;;20.96;100.00
24788;BME280;12883;52.662;5.196;2023-07-08T06:33:48;101749.09;;;20.95;100.00
24788;BME280;12883;52.662;5.196;2023-07-08T06:36:13;101747.72;;;21.09;100.00
24788;BME280;12883;52.662;5.196;2023-07-08T06:38:38;101748.41;;;21.04;100.00
24788;BME280;12883;52.662;5.196;2023-07-08T06:41:04;101746.56;;;21.05;100.00
24788;BME280;12883;52.662;5.196;2023-07-08T06:43:29;101747.78;;;21.14;100.00
24788;BME280;12883;52.662;5.196;2023-07-08T06:45:54;101746.47;;;21.16;100.00
24788;BME280;12883;52.662;5.196;2023-07-08T06:48:20;101740.94;;;21.23;100.00
24788;BME280;12883;52.662;5.196;2023-07-08T06:50:46;101734.34;;;21.35;100.00
24788;BME280;12883;52.662;5.196;2023-07-08T06:53:12;101738.53;;;21.43;100.00
24788;BME280;12883;52.662;5.196;2023-07-08T06:55:38;101738.25;;;21.44;100.00
24788;BME280;12883;52.662;5.196;2023-07-08T06:58:04;101703.44;;;21.26;100.00
24788;BME280;12883;52.662;5.196;2023-07-08T07:00:29;101722.88;;;21.45;100.00
24788;BME280;12883;52.662;5.196;2023-07-08T07:02:54;101724.97;;;21.59;100.00
24788;BME280;12883;52.662;5.196;2023-07-08T07:05:20;101730.63;;;21.74;100.00
24788;BME280;12883;52.662;5.196;2023-07-08T07:07:45;101731.38;;;21.70;100.00
24788;BME280;12883;52.662;5.196;2023-07-08T07:10:10;101742.00;;;21.76;100.00
24788;BME280;12883;52.662;5.196;2023-07-08T07:12:36;101737.34;;;21.72;100.00
24788;BME280;12883;52.662;5.196;2023-07-08T07:15:01;101725.41;;;21.68;100.00
24788;BME280;12883;52.662;5.196;2023-07-08T07:17:28;101682.94;;;21.47;100.00
24788;BME280;12883;52.662;5.196;2023-07-08T07:19:53;101741.00;;;21.82;100.00
24788;BME280;12883;52.662;5.196;2023-07-08T07:22:19;101746.22;;;21.89;100.00
24788;BME280;12883;52.662;5.196;2023-07-08T07:24:44;101676.66;;;21.63;100.00
24788;BME280;12883;52.662;5.196;2023-07-08T07:27:10;101738.88;;;22.06;100.00
24788;BME280;12883;52.662;5.196;2023-07-08T07:29:44;101674.69;;;21.75;100.00
24788;BME280;12883;52.662;5.196;2023-07-08T07:32:10;101751.69;;;22.15;100.00
24788;BME280;12883;52.662;5.196;2023-07-08T07:34:36;101744.03;;;22.29;100.00
24788;BME280;12883;52.662;5.196;2023-07-08T07:37:01;101751.00;;;22.25;100.00
24788;BME280;12883;52.662;5.196;2023-07-08T07:39:26;101743.13;;;22.45;100.00
24788;BME280;12883;52.662;5.196;2023-07-08T07:41:53;101752.25;;;22.39;100.00
24788;BME280;12883;52.662;5.196;2023-07-08T07:44:19;101754.31;;;22.32;100.00
24788;BME280;12883;52.662;5.196;2023-07-08T07:46:44;101760.63;;;22.37;100.00
24788;BME280;12883;52.662;5.196;2023-07-08T07:49:09;101767.16;;;22.41;100.00
24788;BME280;12883;52.662;5.196;2023-07-08T07:51:35;101761.06;;;22.51;100.00
24788;BME280;12883;52.662;5.196;2023-07-08T07:54:00;101762.28;;;22.65;100.00
24788;BME280;12883;52.662;5.196;2023-07-08T07:56:26;101738.94;;;22.54;100.00
24788;BME280;12883;52.662;5.196;2023-07-08T07:58:51;101760.00;;;22.78;100.00
24788;BME280;12883;52.662;5.196;2023-07-08T08:01:16;101750.16;;;22.67;100.00
24788;BME280;12883;52.662;5.196;2023-07-08T08:03:43;101758.03;;;22.74;100.00
24788;BME280;12883;52.662;5.196;2023-07-08T08:06:08;101764.13;;;22.86;100.00
24788;BME280;12883;52.662;5.196;2023-07-08T08:08:33;101739.09;;;22.74;100.00
24788;BME280;12883;52.662;5.196;2023-07-08T08:10:59;101732.97;;;22.83;100.00
24788;BME280;12883;52.662;5.196;2023-07-08T08:13:24;101676.63;;;22.49;100.00
24788;BME280;12883;52.662;5.196;2023-07-08T08:15:55;101737.53;;;23.09;100.00
24788;BME280;12883;52.662;5.196;2023-07-08T08:18:21;101732.34;;;23.03;100.00
24788;BME280;12883;52.662;5.196;2023-07-08T08:20:50;101723.63;;;23.01;100.00
24788;BME280;12883;52.662;5.196;2023-07-08T08:23:15;101732.97;;;23.15;100.00
24788;BME280;12883;52.662;5.196;2023-07-08T08:25:41;101728.16;;;23.17;100.00
24788;BME280;12883;52.662;5.196;2023-07-08T08:28:06;101741.09;;;23.15;100.00
24788;BME280;12883;52.662;5.196;2023-07-08T08:30:32;101721.28;;;23.09;100.00
24788;BME280;12883;52.662;5.196;2023-07-08T08:32:58;101703.59;;;22.97;100.00
24788;BME280;12883;52.662;5.196;2023-07-08T08:35:23;101742.69;;;23.42;100.00
24788;BME280;12883;52.662;5.196;2023-07-08T08:37:49;101744.03;;;23.40;100.00
24788;BME280;12883;52.662;5.196;2023-07-08T08:40:18;101735.66;;;23.41;100.00
24788;BME280;12883;52.662;5.196;2023-07-08T08:42:46;101752.69;;;23.37;100.00
24788;BME280;12883;52.662;5.196;2023-07-08T08:45:18;101757.13;;;23.53;100.00
24788;BME280;12883;52.662;5.196;2023-07-08T08:47:50;101751.75;;;23.58;100.00
24788;BME280;12883;52.662;5.196;2023-07-08T08:52:50;101736.91;;;23.70;100.00
24788;BME280;12883;52.662;5.196;2023-07-08T08:55:16;101731.19;;;23.67;100.00
24788;BME280;12883;52.662;5.196;2023-07-08T08:57:49;101724.66;;;23.63;100.00
24788;BME280;12883;52.662;5.196;2023-07-08T09:01:16;101740.41;;;23.71;100.00
24788;BME280;12883;52.662;5.196;2023-07-08T09:03:30;101738.28;;;23.73;100.00
24788;BME280;12883;52.662;5.196;2023-07-08T09:05:58;101729.41;;;23.87;100.00
24788;BME280;12883;52.662;5.196;2023-07-08T09:08:33;101746.53;;;23.93;100.00
24788;BME280;12883;52.662;5.196;2023-07-08T09:11:13;101741.13;;;23.93;100.00
24788;BME280;12883;52.662;5.196;2023-07-08T09:13:40;101739.78;;;24.00;100.00
24788;BME280;12883;52.662;5.196;2023-07-08T09:16:38;101742.50;;;24.00;100.00
24788;BME280;12883;52.662;5.196;2023-07-08T09:19:13;101734.16;;;24.17;100.00
24788;BME280;12883;52.662;5.196;2023-07-08T09:21:53;101707.00;;;24.07;100.00
24788;BME280;12883;52.662;5.196;2023-07-08T09:24:42;101736.09;;;24.31;100.00
24788;BME280;12883;52.662;5.196;2023-07-08T09:27:08;101736.41;;;24.45;100.00
24788;BME280;12883;52.662;5.196;2023-07-08T09:29:33;101726.34;;;24.40;100.00
24788;BME280;12883;52.662;5.196;2023-07-08T09:32:01;101745.63;;;24.54;100.00
24788;BME280;12883;52.662;5.196;2023-07-08T09:34:41;101727.19;;;24.41;100.00
24788;BME280;12883;52.662;5.196;2023-07-08T09:37:29;101757.91;;;24.71;100.00
24788;BME280;12883;52.662;5.196;2023-07-08T09:39:57;101749.00;;;24.91;100.00
24788;BME280;12883;52.662;5.196;2023-07-08T09:42:27;101750.34;;;24.98;100.00
24788;BME280;12883;52.662;5.196;2023-07-08T09:45:18;101746.56;;;25.04;100.00
24788;BME280;12883;52.662;5.196;2023-07-08T09:47:44;101753.88;;;24.94;100.00
24788;BME280;12883;52.662;5.196;2023-07-08T09:50:26;101739.50;;;24.88;100.00
24788;BME280;12883;52.662;5.196;2023-07-08T09:52:54;101753.34;;;24.97;100.00
24788;BME280;12883;52.662;5.196;2023-07-08T09:55:20;101748.47;;;24.99;100.00
24788;BME280;12883;52.662;5.196;2023-07-08T09:57:47;101752.53;;;25.11;100.00
24788;BME280;12883;52.662;5.196;2023-07-08T10:00:16;101748.72;;;25.17;100.00
24788;BME280;12883;52.662;5.196;2023-07-08T10:02:46;101750.38;;;25.33;100.00
24788;BME280;12883;52.662;5.196;2023-07-08T10:05:27;101758.81;;;25.32;100.00
24788;BME280;12883;52.662;5.196;2023-07-08T10:07:56;101749.00;;;25.46;100.00
24788;BME280;12883;52.662;5.196;2023-07-08T10:10:33;101750.63;;;25.37;100.00
24788;BME280;12883;52.662;5.196;2023-07-08T10:13:08;101746.84;;;25.38;100.00
24788;BME280;12883;52.662;5.196;2023-07-08T10:15:40;101751.16;;;25.54;100.00
24788;BME280;12883;52.662;5.196;2023-07-08T10:18:17;101741.91;;;25.55;100.00
24788;BME280;12883;52.662;5.196;2023-07-08T10:21:14;101745.72;;;25.54;100.00
24788;BME280;12883;52.662;5.196;2023-07-08T10:26:40;101714.19;;;25.58;100.00
24788;BME280;12883;52.662;5.196;2023-07-08T10:29:23;101747.00;;;25.81;100.00
24788;BME280;12883;52.662;5.196;2023-07-08T10:40:02;101739.63;;;25.97;100.00
24788;BME280;12883;52.662;5.196;2023-07-08T10:56:52;101742.44;;;26.35;96.33
24788;BME280;12883;52.662;5.196;2023-07-08T11:04:51;101740.34;;;26.71;98.92
24788;BME280;12883;52.662;5.196;2023-07-08T11:07:30;101737.63;;;26.71;95.26
24788;BME280;12883;52.662;5.196;2023-07-08T11:10:02;101734.47;;;26.54;93.55
24788;BME280;12883;52.662;5.196;2023-07-08T11:12:37;101736.63;;;26.62;93.29
24788;BME280;12883;52.662;5.196;2023-07-08T11:15:17;101725.66;;;26.67;94.21
24788;BME280;12883;52.662;5.196;2023-07-08T11:17:59;101720.09;;;26.81;94.93
24788;BME280;12883;52.662;5.196;2023-07-08T11:23:13;101721.38;;;26.94;94.01
24788;BME280;12883;52.662;5.196;2023-07-08T11:25:45;101688.38;;;26.62;89.01
24788;BME280;12883;52.662;5.196;2023-07-08T11:28:15;101717.59;;;26.90;90.98
24788;BME280;12883;52.662;5.196;2023-07-08T11:30:44;101722.47;;;26.93;91.48
24788;BME280;12883;52.662;5.196;2023-07-08T11:33:13;101717.13;;;27.11;91.90
24788;BME280;12883;52.662;5.196;2023-07-08T11:35:45;101686.66;;;27.04;93.48
24788;BME280;12883;52.662;5.196;2023-07-08T11:38:17;101725.84;;;27.13;88.45
24788;BME280;12883;52.662;5.196;2023-07-08T11:40:57;101708.78;;;27.31;93.99
24788;BME280;12883;52.662;5.196;2023-07-08T11:43:26;101715.44;;;27.49;94.88
24788;BME280;12883;52.662;5.196;2023-07-08T11:45:56;101670.78;;;27.11;89.53
24788;BME280;12883;52.662;5.196;2023-07-08T11:48:52;101702.06;;;27.47;90.75
24788;BME280;12883;52.662;5.196;2023-07-08T11:51:27;101691.81;;;27.39;89.16
24788;BME280;12883;52.662;5.196;2023-07-08T11:56:27;101719.50;;;27.51;86.93
24788;BME280;12883;52.662;5.196;2023-07-08T12:01:28;101697.63;;;27.80;89.23
24788;BME280;12883;52.662;5.196;2023-07-08T12:04:00;101692.13;;;27.85;88.78
24788;BME280;12883;52.662;5.196;2023-07-08T12:09:14;101697.13;;;27.73;86.28
24788;BME280;12883;52.662;5.196;2023-07-08T12:11:43;101693.13;;;27.89;87.35
24788;BME280;12883;52.662;5.196;2023-07-08T12:14:09;101693.47;;;28.06;86.24
24788;BME280;12883;52.662;5.196;2023-07-08T12:16:34;101697.00;;;28.06;85.37
24788;BME280;12883;52.662;5.196;2023-07-08T12:19:01;101686.91;;;28.07;84.30
24788;BME280;12883;52.662;5.196;2023-07-08T12:21:30;101679.66;;;27.97;84.35
24788;BME280;12883;52.662;5.196;2023-07-08T12:24:03;101688.47;;;28.13;81.98
24788;BME280;12883;52.662;5.196;2023-07-08T12:26:29;101677.97;;;28.20;80.97
24788;BME280;12883;52.662;5.196;2023-07-08T12:28:56;101696.22;;;28.24;82.55
24788;BME280;12883;52.662;5.196;2023-07-08T12:31:22;101685.41;;;28.38;84.66
24788;BME280;12883;52.662;5.196;2023-07-08T12:33:49;101680.50;;;28.35;82.43
24788;BME280;12883;52.662;5.196;2023-07-08T12:36:21;101672.09;;;28.50;83.05
24788;BME280;12883;52.662;5.196;2023-07-08T12:38:49;101679.19;;;28.51;83.67
24788;BME280;12883;52.662;5.196;2023-07-08T12:41:24;101671.72;;;28.56;82.92
24788;BME280;12883;52.662;5.196;2023-07-08T12:43:50;101682.78;;;28.65;81.68
24788;BME280;12883;52.662;5.196;2023-07-08T12:46:20;101666.91;;;28.67;82.79
24788;BME280;12883;52.662;5.196;2023-07-08T12:48:46;101661.38;;;28.53;80.10
24788;BME280;12883;52.662;5.196;2023-07-08T12:51:14;101669.94;;;28.65;80.55
24788;BME280;12883;52.662;5.196;2023-07-08T12:53:40;101674.22;;;28.71;81.62
24788;BME280;12883;52.662;5.196;2023-07-08T12:56:05;101659.50;;;28.67;79.98
24788;BME280;12883;52.662;5.196;2023-07-08T12:58:34;101662.81;;;28.83;81.48
24788;BME280;12883;52.662;5.196;2023-07-08T13:01:04;101636.09;;;28.61;79.12
24788;BME280;12883;52.662;5.196;2023-07-08T13:03:34;101663.63;;;28.83;77.43
24788;BME280;12883;52.662;5.196;2023-07-08T13:06:01;101674.66;;;28.92;78.74
24788;BME280;12883;52.662;5.196;2023-07-08T13:08:30;101675.34;;;29.02;80.24
24788;BME280;12883;52.662;5.196;2023-07-08T13:10:58;101684.88;;;29.05;79.87
24788;BME280;12883;52.662;5.196;2023-07-08T13:13:27;101664.78;;;28.96;80.19
24788;BME280;12883;52.662;5.196;2023-07-08T13:15:54;101681.84;;;29.06;78.95
24788;BME280;12883;52.662;5.196;2023-07-08T13:18:29;101675.38;;;29.16;79.59
24788;BME280;12883;52.662;5.196;2023-07-08T13:20:56;101680.13;;;29.10;75.95
24788;BME280;12883;52.662;5.196;2023-07-08T13:23:23;101671.31;;;29.13;76.87
24788;BME280;12883;52.662;5.196;2023-07-08T13:25:50;101667.47;;;29.14;76.37
24788;BME280;12883;52.662;5.196;2023-07-08T13:30:50;101663.31;;;29.30;75.75
24788;BME280;12883;52.662;5.196;2023-07-08T13:33:18;101671.16;;;29.37;76.68
24788;BME280;12883;52.662;5.196;2023-07-08T13:35:44;101666.59;;;29.46;76.45
24788;BME280;12883;52.662;5.196;2023-07-08T13:38:19;101613.88;;;29.13;75.22
24788;BME280;12883;52.662;5.196;2023-07-08T13:40:53;101679.00;;;29.57;74.61
24788;BME280;12883;52.662;5.196;2023-07-08T13:43:24;101607.72;;;29.21;76.74